Latest Coastal Weather Observations for Port Lincoln Airport

IDS60701

Issued at 7:55 am CDT Sunday 26 October 2014 (issued every 10 minutes, with the page automatically refreshed every 10 minutes)

About coastal observations | Map of coastal stations | Coastal observations for SA | Marine services | Other Formats
Station Details ID: 018192 Name: PORT LINCOLN AWS Lat: -34.60 Lon: 135.88 Height: 8.5 m
Data from the previous 72 hours. | See also: Recent months at Port Lincoln Airport
Date/Time
CDT
Temp

°C
Wind Pressure Rain
since 9am
mm
Weather Cloud Vis
km
Sea
Height
m
Swell
Dir
 
Speed
knots
Gust
knots
hPa Trend Height
m
Period
s
Dir
26/07:36am 16.7 ENE 7 10 1011.8 - 0.0 - Partly cloudy 10 - - - -
26/07:31am 16.7 ENE 8 11 1011.8 - 0.0 - Partly cloudy 10 - - - -
26/07:30am 16.7 ENE 9 11 1011.7 - 0.0 - Partly cloudy 10 - - - -
26/07:00am 16.6 E 10 13 1011.3 - 0.0 - Cloudy 10 - - - -
26/06:30am 16.5 E 11 15 1010.3 - 0.0 - Partly cloudy 10 - - - -
26/06:15am 16.4 E 9 12 1011.5 - 0.0 - Partly cloudy 10 - - - -
26/06:00am 16.3 E 7 11 1011.5 - 0.0 - Partly cloudy 10 - - - -
26/05:30am 15.7 E 5 7 1012.9 - 0.0 - Partly cloudy 10 - - - -
26/05:13am 15.8 SSE 5 7 1013.5 - 0.0 - Partly cloudy 10 - - - -
26/05:00am 16.0 SW 5 6 1014.5 - 0.0 - Partly cloudy 10 - - - -
26/04:30am 15.8 N 3 10 1013.1 - 0.0 - Cloudy 10 - - - -
26/04:00am 15.7 N 6 8 1011.7 - 0.0 - Cloudy 10 - - - -
26/03:30am 15.6 NNE 6 10 1011.7 - 0.0 - Cloudy 10 - - - -
26/03:00am 14.6 NNE 6 9 1012.3 - 0.0 - Mostly cloudy 10 - - - -
26/02:46am 13.8 NNE 5 7 1012.2 - 0.0 - Partly cloudy 10 - - - -
26/02:30am 13.1 N 5 6 1012.4 - 0.0 - - 10 - - - -
26/02:00am 13.5 N 5 6 1013.2 - 0.0 - - 10 - - - -
26/01:30am 12.5 NNW 4 5 1013.5 - 0.0 - - 10 - - - -
26/01:00am 13.3 NNE 4 5 1013.8 - 0.0 - - 10 - - - -
26/12:30am 13.4 N 3 4 1014.4 - 0.0 - - 10 - - - -
26/12:00am 14.1 N 4 6 1014.8 - 0.0 - Mostly cloudy 10 - - - -
 
Date/Time
CDT
Temp

°C
Wind Pressure Rain
since 9am
mm
Weather Cloud Vis
km
Sea
Height
m
Swell
Dir
 
Speed
knots
Gust
knots
hPa Trend Height
m
Period
s
Dir
25/11:30pm 15.1 ENE 7 9 1015.2 - 0.0 - - 10 - - - -
25/11:00pm 14.4 ENE 6 8 1015.6 - 0.0 - Partly cloudy 10 - - - -
25/10:30pm 13.6 E 5 6 1015.9 - 0.0 - - 10 - - - -
25/10:00pm 13.8 ESE 5 6 1016.1 - 0.0 - - 10 - - - -
25/09:30pm 14.4 ESE 8 10 1016.2 - 0.0 - Partly cloudy 10 - - - -
25/09:26pm 14.3 ESE 8 9 1016.2 - 0.0 - Partly cloudy 10 - - - -
25/09:12pm 14.7 ESE 7 9 1016.5 - 0.0 - Partly cloudy 10 - - - -
25/09:00pm 14.7 ESE 7 8 1016.4 - 0.0 - Mostly clear 10 - - - -
25/08:30pm 15.8 SE 9 11 1016.3 - 0.0 - Partly cloudy 10 - - - -
25/08:00pm 15.8 ESE 8 10 1016.2 - 0.0 - - 10 - - - -
25/07:30pm 16.7 SE 7 10 1015.9 - 0.0 - - 10 - - - -
25/07:00pm 17.7 ESE 5 8 1015.8 - 0.0 - - 10 - - - -
25/06:30pm 18.3 ESE 9 12 1015.8 - 0.0 - - 10 - - - -
25/06:00pm 18.9 SE 9 10 1015.9 - 0.0 - - 10 - - - -
25/05:30pm 19.5 SSE 9 12 1015.8 - 0.0 - - 10 - - - -
25/05:00pm 19.9 SE 9 12 1016.0 - 0.0 - - 10 - - - -
25/04:30pm 20.1 SSE 8 10 1016.1 - 0.0 - - 10 - - - -
25/04:00pm 20.7 SSE 8 11 1016.0 - 0.0 - - 10 - - - -
25/03:30pm 20.7 ESE 8 12 1016.1 - 0.0 - - 10 - - - -
25/03:00pm 21.2 ESE 8 11 1016.2 - 0.0 - - 10 - - - -
25/02:30pm 21.3 SE 8 12 1016.6 - 0.0 - - 10 - - - -
25/02:00pm 20.6 SE 9 13 1016.8 - 0.0 - - 10 - - - -
25/01:30pm 21.0 SE 8 12 1017.0 - 0.0 - - 10 - - - -
25/01:00pm 20.4 SSE 12 16 1017.0 - 0.0 - - 10 - - - -
25/12:30pm 20.2 SE 12 15 1017.2 - 0.0 - - 10 - - - -
25/12:00pm 19.6 SSE 12 15 1017.5 - 0.0 - - 10 - - - -
25/11:30am 20.2 SSE 10 13 1018.0 - 0.0 - Partly cloudy 10 - - - -
25/11:00am 19.4 SSE 8 12 1018.2 - 0.0 - Cloudy 10 - - - -
25/10:30am 18.9 SSE 6 9 1018.4 - 0.0 - Partly cloudy 10 - - - -
25/10:00am 17.8 S 6 9 1018.3 - 0.0 - Cloudy 10 - - - -
25/09:30am 18.0 SSE 6 9 1018.3 - 0.0 - Partly cloudy 10 - - - -
25/09:00am 17.0 SW 5 7 1018.3 - 0.0 - Cloudy 10 - - - -
25/08:30am 16.5 SW 5 7 1018.4 - 0.0 - Cloudy 10 - - - -
25/08:00am 16.0 WSW 5 6 1018.7 - 0.0 - Cloudy 10 - - - -
25/07:37am 15.6 W 6 9 1018.8 - 0.0 - Cloudy 10 - - - -
25/07:30am 15.5 W 6 8 1018.7 - 0.0 - Cloudy 10 - - - -
25/07:00am 15.1 W 5 7 1018.5 - 0.0 - Cloudy 10 - - - -
25/06:30am 14.9 W 6 8 1018.1 - 0.0 - Cloudy 10 - - - -
25/06:00am 14.8 WSW 6 8 1017.3 - 0.0 - Cloudy 10 - - - -
25/05:30am 14.9 SW 6 8 1017.3 - 0.0 - Cloudy 10 - - - -
25/05:00am 15.0 SW 5 7 1016.7 - 0.0 - Cloudy 10 - - - -
25/04:30am 14.9 SW 6 7 1016.7 - 0.0 - Cloudy 10 - - - -
25/04:00am 14.6 SW 5 6 1016.4 - 0.0 - Cloudy 10 - - - -
25/03:30am 14.7 SSW 7 9 1016.4 - 0.0 - Cloudy 10 - - - -
25/03:00am 14.0 SW 1 7 1016.3 - 0.0 - Mostly cloudy 10 - - - -
25/02:30am 12.5 WSW 4 4 1016.1 - 0.0 - Cloudy 10 - - - -
25/02:00am 11.5 WSW 5 5 1016.3 - 0.0 - Partly cloudy 10 - - - -
25/01:55am 11.6 WSW 5 6 1016.3 - 0.0 - Partly cloudy 10 - - - -
25/01:30am 11.3 SW 5 5 1016.6 - 0.0 - Partly cloudy 10 - - - -
25/01:00am 11.9 WSW 4 5 1016.9 - 0.0 - Partly cloudy 10 - - - -
25/12:30am 12.7 SW 3 6 1017.0 - 0.0 - Partly cloudy 10 - - - -
25/12:00am 13.9 SW 5 6 1017.1 - 0.0 - Mostly clear 10 - - - -
 
Date/Time
CDT
Temp

°C
Wind Pressure Rain
since 9am
mm
Weather Cloud Vis
km
Sea
Height
m
Swell
Dir
 
Speed
knots
Gust
knots
hPa Trend Height
m
Period
s
Dir
24/11:30pm 15.0 S 9 11 1017.2 - 0.0 - Partly cloudy 10 - - - -
24/11:13pm 15.3 S 11 13 1017.3 - 0.0 - Partly cloudy 10 - - - -
24/11:00pm 15.3 S 11 14 1017.2 - 0.0 - Partly cloudy 10 - - - -
24/10:35pm 14.4 SW 7 8 1017.2 - 0.0 - Partly cloudy 10 - - - -
24/10:30pm 14.4 SW 7 9 1017.2 - 0.0 - Partly cloudy 10 - - - -
24/10:00pm 14.3 SW 7 8 1017.1 - 0.0 - Partly cloudy 10 - - - -
24/09:30pm 14.1 WSW 6 7 1016.7 - 0.0 - Partly cloudy 10 - - - -
24/09:00pm 15.0 SW 5 6 1016.3 - 0.0 - Mostly clear 10 - - - -
24/08:59pm 15.1 SW 5 6 1016.3 - 0.0 - Partly cloudy 10 - - - -
24/08:30pm 15.8 SSW 7 12 1015.9 - 0.0 - Partly cloudy 10 - - - -
24/08:12pm 16.0 SSW 7 9 1015.6 - 0.0 - Partly cloudy 10 - - - -
24/08:00pm 16.2 S 8 11 1015.5 - 0.0 - Partly cloudy 10 - - - -
24/07:30pm 17.3 S 12 16 1015.1 - 0.0 - - 10 - - - -
24/07:00pm 18.5 S 13 17 1014.6 - 0.0 - - 10 - - - -
24/06:30pm 19.4 S 14 18 1014.2 - 0.0 - - 10 - - - -
24/06:00pm 20.8 S 13 16 1013.8 - 0.0 - - 10 - - - -
24/05:30pm 21.0 SSE 15 20 1013.7 - 0.0 - - 10 - - - -
24/05:00pm 22.0 SSE 15 20 1013.4 - 0.0 - - 10 - - - -
24/04:30pm 23.5 S 13 16 1013.2 - 0.0 - - 10 - - - -
24/04:00pm 23.9 S 17 22 1013.0 - 0.0 - - 10 - - - -
24/03:30pm 24.0 SSE 14 16 1013.2 - 0.0 - - 10 - - - -
24/03:00pm 25.4 ESE 8 11 1013.4 - 0.0 - - 10 - - - -
24/02:30pm 24.9 SE 11 15 1013.7 - 0.0 - - 10 - - - -
24/02:00pm 23.9 SE 13 18 1013.5 - 0.0 - - 10 - - - -
24/01:30pm 24.3 SE 11 15 1013.9 - 0.0 - - 10 - - - -
24/01:00pm 25.5 E 7 9 1013.5 - 0.0 - - 10 - - - -
24/12:30pm 25.3 ENE 9 11 1013.8 - 0.0 - - 10 - - - -
24/12:00pm 26.8 ESE 7 11 1013.7 - 0.0 - - 10 - - - -
24/11:30am 26.4 ENE 7 8 1014.0 - 0.0 - - 10 - - - -
24/11:00am 24.8 ENE 7 8 1014.0 - 0.0 - - 10 - - - -
24/10:30am 24.8 S 4 7 1013.9 - 0.0 - - 10 - - - -
24/10:00am 23.1 SSE 4 6 1013.9 - 0.0 - - 10 - - - -
24/09:30am 22.9 ESE 6 7 1014.0 - 0.0 - - 10 - - - -
24/09:00am 21.9 E 5 6 1014.0 - 0.0 - - 10 - - - -
24/08:30am 20.9 NE 1 5 1013.9 - 0.0 - - 10 - - - -
24/08:00am 17.4 ESE 3 5 1013.7 - 0.0 - - 10 - - - -
24/07:30am 13.8 CALM 0 4 1013.7 - 0.0 - - 10 - - - -
24/07:00am 11.5 WNW 3 4 1013.7 - 0.0 - - 10 - - - -
24/06:30am 11.3 WNW 4 6 1013.2 - 0.0 - - 10 - - - -
24/06:00am 11.5 WNW 4 5 1012.4 - 0.0 - - 10 - - - -
24/05:30am 12.1 WSW 3 5 1012.6 - 0.0 - - 10 - - - -
24/05:00am 12.6 CALM 0 0 1012.3 - 0.0 - Partly cloudy 10 - - - -
24/04:30am 11.8 CALM 0 0 1012.0 - 0.0 - - 10 - - - -
24/04:00am 12.2 NW 1 4 1012.5 - 0.0 - - 10 - - - -
24/03:30am 14.6 NNE 6 7 1012.3 - 0.0 - - 10 - - - -
24/03:00am 15.4 NNE 5 7 1012.5 - 0.0 - Mostly cloudy 10 - - - -
24/02:30am 15.1 N 5 7 1012.9 - 0.0 - - 10 - - - -
24/02:00am 14.8 NNE 6 8 1013.0 - 0.0 - - 10 - - - -
24/01:30am 14.4 NNE 5 7 1013.4 - 0.0 - - 10 - - - -
24/01:00am 14.0 NNE 2 4 1014.0 - 0.0 - - 10 - - - -
24/12:30am 13.4 CALM 0 0 1014.2 - 0.0 - - 10 - - - -
24/12:00am 13.3 CALM 0 0 1014.7 - 0.0 - Cloudy 10 - - - -
 
Date/Time
CDT
Temp

°C
Wind Pressure Rain
since 9am
mm
Weather Cloud Vis
km
Sea
Height
m
Swell
Dir
 
Speed
knots
Gust
knots
hPa Trend Height
m
Period
s
Dir
23/11:30pm 13.7 N 5 6 1015.5 - 0.0 - - 10 - - - -
23/11:00pm 13.3 NNW 4 5 1015.7 - 0.0 - - 10 - - - -
23/10:30pm 13.2 N 4 4 1015.8 - 0.0 - - 10 - - - -
23/10:00pm 12.9 NNW 3 4 1015.8 - 0.0 - - 10 - - - -
23/09:30pm 12.2 CALM 0 0 1015.6 - 0.0 - - 10 - - - -
23/09:00pm 12.6 CALM 0 0 1015.6 - 0.0 - Partly cloudy 10 - - - -
23/08:30pm 13.6 CALM 0 0 1015.7 - 0.0 - - 10 - - - -
23/08:00pm 14.4 E 1 4 1015.7 - 0.0 - - 10 - - - -
23/07:30pm 15.6 E 5 6 1015.6 - 0.0 - - 10 - - - -
23/07:00pm 16.9 ESE 5 7 1015.8 - 0.0 - - 10 - - - -
23/06:30pm 17.0 ENE 7 9 1016.0 - 0.0 - - 10 - - - -
23/06:00pm 18.0 ENE 7 9 1015.9 - 0.0 - - 10 - - - -
23/05:30pm 18.2 ESE 5 8 1015.7 - 0.0 - - 10 - - - -
23/05:00pm 18.3 SE 7 10 1015.6 - 0.0 - - 10 - - - -
23/04:30pm 19.0 SE 7 11 1015.8 - 0.0 - - 10 - - - -
23/04:00pm 18.6 SSE 10 12 1015.8 - 0.0 - - 10 - - - -
23/03:30pm 18.7 SSE 9 12 1016.2 - 0.0 - Partly cloudy 10 - - - -
23/03:00pm 19.3 E 9 11 1016.4 - 0.0 - - 10 - - - -
23/02:30pm 18.9 E 10 13 1016.4 - 0.0 - Partly cloudy 10 - - - -
23/02:00pm 18.7 E 10 14 1016.7 - 0.0 - Partly cloudy 10 - - - -
23/01:30pm 19.0 ENE 8 11 1017.3 - 0.0 - Cloudy 10 - - - -
23/01:00pm 18.2 E 8 11 1017.6 - 0.0 - Cloudy 10 - - - -
23/12:30pm 17.7 E 9 12 1018.0 - 0.0 - Cloudy 10 - - - -
23/12:00pm 18.0 E 10 14 1018.0 - 0.0 - Cloudy 10 - - - -
23/11:30am 17.3 E 11 14 1018.3 - 0.0 - Cloudy 10 - - - -
23/11:00am 17.4 E 9 11 1018.7 - 0.0 - Cloudy 10 - - - -
23/10:30am 16.7 E 11 13 1018.9 - 0.0 - Cloudy 10 - - - -
23/10:00am 16.6 E 8 11 1019.0 - 0.0 - Cloudy 10 - - - -
23/09:50am 16.2 ESE 9 11 1019.0 - 0.0 - Cloudy 10 - - - -
23/09:30am 16.1 ESE 11 13 1019.2 - 0.0 - Cloudy 10 - - - -
23/09:00am 15.6 E 10 13 1019.2 - 0.0 - Cloudy 10 - - - -
23/08:30am 15.4 ESE 10 14 1019.4 - 0.0 - Cloudy 10 - - - -
23/08:00am 15.2 E 11 13 1019.1 - 0.0 - Cloudy 10 - - - -

Other Formats:

Comma delimited format used in spreadsheet applications
http://www.bom.gov.au/fwo/IDS60701/IDS60701.95661.axf

JavaScript Object Notation format (JSON) in row-major order
http://www.bom.gov.au/fwo/IDS60701/IDS60701.95661.json